Latest Coastal Weather Observations for Lockhart River

IDQ60701

Issued at 5:42 pm EST Tuesday 9 February 2016 (issued every 10 minutes, with the page automatically refreshed every 10 minutes)

About coastal observations | Map of coastal stations | Coastal observations for QLD | Marine services | Other Formats
Station Details ID: 028008 Name: LOCKHART RIVER AIRPORT Lat: -12.79 Lon: 143.30 Height: 18.5 m
Data from the previous 72 hours. | See also: Recent months at Lockhart River
Date/Time
EST
Temp

°C
Wind Pressure Rain
since 9am
mm
Weather Cloud Vis
km
Sea
Height
m
Swell
Dir
 
Speed
knots
Gust
knots
hPa Trend Height
m
Period
s
Dir
09/05:30pm 28.3 S 5 7 1005.7 - 25.0 - - - - - - -
09/05:00pm 28.4 S 4 6 1005.5 - 25.0 - - - - - - -
09/04:30pm 28.5 SE 4 6 1005.4 - 25.0 - - - - - - -
09/04:00pm 27.8 SSW 2 4 1005.5 - 25.0 - - - - - - -
09/03:30pm 27.2 SW 1 3 1005.6 - 25.0 - Partly cloudy - - - - -
09/03:00pm 26.7 S 3 4 1006.2 - 25.0 - Partly cloudy - - - - -
09/02:30pm 26.3 SSW 3 6 1006.6 - 25.0 - Partly cloudy - - - - -
09/02:00pm 25.3 E 5 7 1006.8 - 24.8 - Partly cloudy - - - - -
09/01:30pm 25.1 N 12 16 1007.3 - 8.0 - Partly cloudy - - - - -
09/01:00pm 29.0 W 13 17 1007.3 - 0.0 - Cloudy - - - - -
09/12:30pm 32.9 NE 5 8 1007.4 - 0.0 - Partly cloudy - - - - -
09/12:00pm 33.6 SE 3 6 1007.7 - 0.0 - Partly cloudy - - - - -
09/11:30am 33.3 ENE 3 6 1008.3 - 0.0 - Partly cloudy - - - - -
09/11:00am 32.6 ESE 4 9 1008.7 - 0.0 - - - - - - -
09/10:30am 32.4 SE 3 6 1009.1 - 0.0 - Partly cloudy - - - - -
09/10:00am 31.4 SSW 4 6 1009.3 - 0.0 - - - - - - -
09/09:30am 30.6 SE 4 6 1009.2 - 0.0 - Partly cloudy - - - - -
09/09:00am 29.6 SSW 4 6 1009.1 - 0.0 - - - - - - -
09/08:30am 28.9 SW 3 5 1009.2 - 0.0 - - - - - - -
09/08:00am 27.0 CALM 0 0 1008.9 - 0.0 - Partly cloudy - - - - -
09/07:30am 25.9 NW 3 5 1008.7 - 0.0 - Partly cloudy - - - - -
09/07:00am 25.6 CALM 0 0 1008.3 - 0.0 - Partly cloudy - - - - -
09/06:30am 25.5 NNW 3 4 1008.0 - 0.0 - Partly cloudy - - - - -
09/06:00am 25.8 CALM 0 0 1007.6 - 0.0 - Partly cloudy - - - - -
09/05:30am 26.0 CALM 0 0 1007.4 - 0.0 - Partly cloudy - - - - -
09/05:00am 26.1 E 1 4 1007.3 - 0.0 - Partly cloudy - - - - -
09/04:30am 26.1 CALM 0 3 1007.2 - 0.0 - Partly cloudy - - - - -
09/04:00am 26.2 N 1 3 1007.1 - 0.0 - Cloudy - - - - -
09/03:30am 26.1 CALM 0 0 1007.1 - 0.0 - Partly cloudy - - - - -
09/03:00am 26.4 NE 3 4 1007.1 - 0.0 - Partly cloudy - - - - -
09/02:30am 27.0 S 5 7 1007.1 - 0.0 - - - - - - -
09/02:00am 27.1 SSW 4 7 1007.2 - 0.0 - Partly cloudy - - - - -
09/01:30am 27.1 W 3 6 1007.5 - 0.0 - Partly cloudy - - - - -
09/01:00am 27.0 WSW 3 5 1008.0 - 0.0 - Cloudy - - - - -
09/12:30am 27.1 SW 4 7 1008.4 - 0.0 - Cloudy - - - - -
09/12:00am 27.2 SSE 3 4 1008.6 - 0.0 - Partly cloudy - - - - -
 
Date/Time
EST
Temp

°C
Wind Pressure Rain
since 9am
mm
Weather Cloud Vis
km
Sea
Height
m
Swell
Dir
 
Speed
knots
Gust
knots
hPa Trend Height
m
Period
s
Dir
08/11:30pm 27.1 SSW 5 7 1008.8 - 0.0 - Cloudy - - - - -
08/11:00pm 27.0 WSW 5 8 1008.5 - 0.0 - Partly cloudy - - - - -
08/10:30pm 26.8 CALM 0 0 1008.6 - 0.0 - Partly cloudy - - - - -
08/10:00pm 26.9 CALM 0 0 1008.8 - 0.0 - Partly cloudy - - - - -
08/09:30pm 26.9 NW 3 4 1008.8 - 0.0 - Partly cloudy - - - - -
08/09:00pm 27.3 N 1 3 1008.2 - 0.0 - Partly cloudy - - - - -
08/08:30pm 27.3 CALM 0 0 1008.5 - 0.0 - Partly cloudy - - - - -
08/08:00pm 27.4 CALM 0 0 1008.2 - 0.0 - Partly cloudy - - - - -
08/07:30pm 27.5 CALM 0 0 1007.5 - 0.0 - - - - - - -
08/07:00pm 28.1 CALM 0 0 1006.9 - 0.0 - - - - - - -
08/06:30pm 28.2 WNW 2 4 1006.3 - 0.0 - - - - - - -
08/06:00pm 28.3 NW 5 5 1006.2 - 0.0 - - - - - - -
08/05:30pm 29.0 CALM 0 3 1006.2 - 0.0 - Partly cloudy - - - - -
08/05:00pm 28.5 E 2 3 1006.0 - 0.0 - Partly cloudy - - - - -
08/04:30pm 28.0 W 5 8 1005.9 - 0.0 - Partly cloudy - - - - -
08/04:00pm 28.0 ESE 4 6 1005.6 - 0.0 - Partly cloudy - - - - -
08/03:30pm 27.7 SSE 5 7 1005.7 - 0.0 - Partly cloudy - - - - -
08/03:00pm 27.9 SSE 6 8 1005.9 - 0.0 - Partly cloudy - - - - -
08/02:30pm 29.2 SSE 5 8 1006.8 - 0.0 - Partly cloudy - - - - -
08/02:00pm 29.8 E 4 7 1007.2 - 0.0 - Partly cloudy - - - - -
08/01:30pm 29.6 E 6 9 1007.5 - 0.0 - Partly cloudy - - - - -
08/01:00pm 31.3 E 6 9 1008.0 - 0.0 - - - - - - -
08/12:30pm 32.0 N 4 10 1008.3 - 0.0 - Partly cloudy - - - - -
08/12:00pm 33.3 NW 5 9 1008.5 - 0.0 - Partly cloudy - - - - -
08/11:30am 33.7 NW 3 7 1009.2 - 0.0 - Partly cloudy - - - - -
08/11:00am 33.4 SW 3 6 1009.6 - 0.0 - Partly cloudy - - - - -
08/10:30am 32.7 S 4 6 1009.7 - 0.0 - - - - - - -
08/10:00am 32.0 WSW 5 9 1009.6 - 0.0 - - - - - - -
08/09:30am 31.0 WSW 6 9 1009.7 - 0.0 - - - - - - -
08/09:00am 30.5 W 7 9 1009.7 - 0.0 - - - - - - -
08/08:30am 29.7 WSW 3 6 1009.7 - 0.0 - - - - - - -
08/08:00am 28.6 CALM 0 0 1009.5 - 0.0 - - - - - - -
08/07:30am 27.8 WSW 2 5 1009.2 - 0.0 - Partly cloudy - - - - -
08/07:00am 27.4 W 5 7 1008.9 - 0.0 - Cloudy - - - - -
08/06:30am 27.2 SW 4 5 1008.4 - 0.0 - Cloudy - - - - -
08/06:00am 27.4 W 4 7 1008.0 - 0.0 - - - - - - -
08/05:30am 27.1 W 3 5 1007.7 - 0.0 - - - - - - -
08/05:00am 26.9 W 4 7 1007.7 - 0.0 - - - - - - -
08/04:30am 27.3 NW 3 5 1007.5 - 0.0 - - - - - - -
08/04:00am 27.9 WSW 4 6 1007.5 - 0.0 - - - - - - -
08/03:30am 27.8 W 2 5 1007.4 - 0.0 - - - - - - -
08/03:00am 28.2 W 5 8 1007.1 - 0.0 - - - - - - -
08/02:30am 28.2 W 4 9 1007.5 - 0.0 - - - - - - -
08/02:00am 28.1 W 5 10 1007.9 - 0.0 - - - - - - -
08/01:30am 28.2 W 8 12 1008.3 - 0.0 - - - - - - -
08/01:00am 28.3 W 7 11 1008.6 - 0.0 - - - - - - -
08/12:30am 28.2 WNW 8 13 1008.9 - 0.0 - - - - - - -
08/12:00am 28.1 WNW 6 9 1008.9 - 0.0 - - - - - - -
 
Date/Time
EST
Temp

°C
Wind Pressure Rain
since 9am
mm
Weather Cloud Vis
km
Sea
Height
m
Swell
Dir
 
Speed
knots
Gust
knots
hPa Trend Height
m
Period
s
Dir
07/11:30pm 27.3 NNW 3 4 1009.0 - 0.0 - - - - - - -
07/11:00pm 27.4 NW 3 5 1009.0 - 0.0 - - - - - - -
07/10:30pm 27.2 CALM 0 2 1009.0 - 0.0 - - - - - - -
07/10:00pm 27.4 NNW 1 3 1008.8 - 0.0 - - - - - - -
07/09:30pm 28.0 CALM 0 0 1008.6 - 0.0 - Partly cloudy - - - - -
07/09:00pm 28.1 CALM 0 0 1008.2 - 0.0 - Cloudy - - - - -
07/08:30pm 28.6 CALM 0 0 1008.1 - 0.0 - Cloudy - - - - -
07/08:00pm 28.5 CALM 0 0 1007.7 - 0.0 - Partly cloudy - - - - -
07/07:30pm 28.9 CALM 0 0 1007.2 - 0.0 - Cloudy - - - - -
07/07:00pm 29.3 CALM 0 3 1006.7 - 0.0 - Cloudy - - - - -
07/06:30pm 29.7 WNW 4 7 1006.2 - 0.0 - Partly cloudy - - - - -
07/06:00pm 30.4 N 4 6 1005.6 - 0.0 - Partly cloudy - - - - -
07/05:30pm 30.9 NNE 6 9 1005.3 - 0.0 - Partly cloudy - - - - -
07/05:00pm 31.6 NE 5 7 1005.0 - 0.0 - Partly cloudy - - - - -
07/04:30pm 31.7 NE 6 8 1004.8 - 0.0 - Partly cloudy - - - - -
07/04:00pm 31.6 NNE 6 7 1004.8 - 0.0 - Partly cloudy - - - - -
07/03:30pm 31.2 NE 7 9 1005.0 - 0.0 - Partly cloudy - - - - -
07/03:00pm 32.9 ENE 5 9 1005.1 - 0.0 - Partly cloudy - - - - -
07/02:30pm 33.1 ENE 4 7 1005.3 - 0.0 - Partly cloudy - - - - -
07/02:00pm 32.5 ESE 3 6 1005.8 - 0.0 - Partly cloudy - - - - -
07/01:30pm 33.6 E 4 7 1006.0 - 0.0 - Partly cloudy - - - - -
07/01:00pm 32.8 E 3 7 1006.6 - 0.0 - Partly cloudy - - - - -
07/12:30pm 30.7 NNE 2 4 1007.1 - 0.0 - Partly cloudy - - - - -
07/12:00pm 31.3 WNW 3 7 1007.5 - 0.0 - Partly cloudy - - - - -
07/11:30am 31.4 WNW 6 7 1008.1 - 0.0 - Partly cloudy - - - - -
07/11:00am 31.1 NNW 5 8 1008.4 - 0.0 - Partly cloudy - - - - -
07/10:30am 30.3 NNW 5 7 1008.7 - 0.0 - Partly cloudy - - - - -
07/10:00am 30.0 NW 5 7 1008.9 - 0.0 - Partly cloudy - - - - -
07/09:30am 29.4 NNW 7 10 1009.1 - 0.0 - Cloudy - - - - -
07/09:00am 29.7 NW 6 8 1008.8 - 0.0 - Cloudy - - - - -
07/08:30am 29.2 NW 6 9 1008.9 - 0.0 - Partly cloudy - - - - -
07/08:00am 27.9 NW 5 7 1008.8 - 0.0 - Partly cloudy - - - - -
07/07:30am 26.7 NW 3 4 1008.5 - 0.0 - - - - - - -
07/07:00am 25.6 NW 4 5 1008.0 - 0.0 - Partly cloudy - - - - -
07/06:30am 24.9 WNW 3 4 1007.7 - 0.0 - Partly cloudy - - - - -
07/06:00am 24.8 NW 4 4 1007.4 - 0.0 - - - - - - -
07/05:30am 24.9 NW 4 5 1007.0 - 0.0 - - - - - - -
07/05:00am 25.1 WNW 1 3 1006.7 - 0.0 - - - - - - -
07/04:30am 25.3 NW 2 4 1006.7 - 0.0 - Partly cloudy - - - - -
07/04:00am 25.2 CALM 0 3 1006.6 - 0.0 - Partly cloudy - - - - -
07/03:30am 25.3 CALM 0 0 1006.2 - 0.0 - - - - - - -
07/03:00am 25.4 CALM 0 3 1006.0 - 0.0 - - - - - - -
07/02:30am 25.5 CALM 0 3 1006.2 - 0.0 - - - - - - -
07/02:00am 25.9 NW 4 6 1006.3 - 0.0 - - - - - - -
07/01:30am 25.7 NNW 4 5 1006.7 - 0.0 - - - - - - -
07/01:00am 25.7 CALM 0 3 1007.0 - 0.0 - - - - - - -
07/12:30am 26.3 CALM 0 0 1007.3 - 0.0 - - - - - - -
07/12:00am 26.0 CALM 0 1 1007.6 - 0.0 - - - - - - -
 
Date/Time
EST
Temp

°C
Wind Pressure Rain
since 9am
mm
Weather Cloud Vis
km
Sea
Height
m
Swell
Dir
 
Speed
knots
Gust
knots
hPa Trend Height
m
Period
s
Dir
06/11:30pm 26.2 CALM 0 0 1007.9 - 0.0 - - - - - - -
06/11:00pm 26.3 CALM 0 0 1007.9 - 0.0 - - - - - - -
06/10:30pm 26.5 CALM 0 0 1007.8 - 0.0 - - - - - - -
06/10:00pm 26.7 CALM 0 0 1007.5 - 0.0 - - - - - - -
06/09:30pm 27.8 CALM 0 1 1007.2 - 0.0 - - - - - - -
06/09:00pm 28.5 NW 4 6 1006.7 - 0.0 - - - - - - -
06/08:30pm 28.9 WNW 6 8 1006.3 - 0.0 - - - - - - -
06/08:00pm 29.5 W 6 10 1005.8 - 0.0 - Partly cloudy - - - - -
06/07:30pm 29.7 W 7 10 1005.3 - 0.0 - Partly cloudy - - - - -
06/07:00pm 30.4 WSW 8 10 1005.0 - 0.0 - Partly cloudy - - - - -
06/06:30pm 31.3 WNW 8 11 1004.2 - 0.0 - Partly cloudy - - - - -
06/06:00pm 32.1 W 9 13 1003.5 - 0.0 - Partly cloudy - - - - -

Other Formats:

Comma delimited format used in spreadsheet applications
http://www.bom.gov.au/fwo/IDQ60701/IDQ60701.94186.axf

JavaScript Object Notation format (JSON) in row-major order
http://www.bom.gov.au/fwo/IDQ60701/IDQ60701.94186.json